createdAt,value
2023-01-19T00:01:01.367Z,84.47
2023-01-19T00:03:29.957Z,84.13
2023-01-19T00:05:58.649Z,84.77
2023-01-19T00:08:27.259Z,85.54
2023-01-19T00:10:55.866Z,84.67
2023-01-19T00:13:24.461Z,84.62
2023-01-19T00:15:53.081Z,85.79
2023-01-19T00:18:23.239Z,86.01
2023-01-19T00:20:51.840Z,85.45
2023-01-19T00:23:21.078Z,85.25
2023-01-19T00:25:51.172Z,85.37
2023-01-19T00:28:20.130Z,85.69
2023-01-19T00:30:48.748Z,86.17
2023-01-19T00:33:17.312Z,86.70
2023-01-19T00:35:52.484Z,86.68
2023-01-19T00:38:21.159Z,86.90
2023-01-19T00:40:49.880Z,86.30
2023-01-19T00:43:18.519Z,87.04
2023-01-19T00:45:47.188Z,86.00
2023-01-19T00:48:15.892Z,87.73
2023-01-19T00:50:44.550Z,87.52
2023-01-19T00:53:14.488Z,88.02
2023-01-19T00:55:43.118Z,87.92
2023-01-19T00:58:11.694Z,87.57
2023-01-19T01:00:40.287Z,87.79
2023-01-19T01:03:08.962Z,86.60
2023-01-19T01:05:37.601Z,86.71
2023-01-19T01:08:06.186Z,86.63
2023-01-19T01:10:36.150Z,86.49
2023-01-19T01:13:24.714Z,86.29
2023-01-19T01:15:54.106Z,87.14
2023-01-19T01:18:23.000Z,86.66
2023-01-19T01:20:51.621Z,87.31
2023-01-19T01:23:22.574Z,87.35
2023-01-19T01:25:52.642Z,86.68
2023-01-19T01:28:21.298Z,86.92
2023-01-19T01:30:54.175Z,87.06
2023-01-19T01:33:40.543Z,87.18
2023-01-19T01:36:11.575Z,85.88
2023-01-19T01:38:40.452Z,86.12
2023-01-19T01:41:10.581Z,86.64
2023-01-19T01:43:47.873Z,85.34
2023-01-19T01:46:17.942Z,83.95
2023-01-19T01:48:50.950Z,82.54
2023-01-19T01:51:26.666Z,82.15
2023-01-19T01:54:09.385Z,82.34
2023-01-19T01:56:40.746Z,82.44
2023-01-19T01:59:14.121Z,82.67
2023-01-19T02:02:00.662Z,83.47
2023-01-19T02:04:31.398Z,83.77
2023-01-19T02:07:17.620Z,83.64
2023-01-19T02:10:03.735Z,85.91
2023-01-19T02:12:51.313Z,86.11
2023-01-19T02:15:21.200Z,86.80
2023-01-19T02:17:50.059Z,86.07
2023-01-19T02:20:19.170Z,86.36
2023-01-19T02:22:50.091Z,85.15
2023-01-19T02:25:20.968Z,86.33
2023-01-19T02:27:50.479Z,87.50
2023-01-19T02:30:19.563Z,87.05
2023-01-19T02:32:48.254Z,87.41
2023-01-19T02:35:17.136Z,87.38
2023-01-19T02:37:46.130Z,86.51
2023-01-19T02:40:16.584Z,86.18
2023-01-19T02:42:49.468Z,86.58
2023-01-19T02:45:21.658Z,85.06
2023-01-19T02:47:51.875Z,86.06
2023-01-19T02:50:41.803Z,85.68
2023-01-19T02:53:22.509Z,85.49
2023-01-19T02:55:56.490Z,85.62
2023-01-19T02:58:32.367Z,86.28
2023-01-19T03:01:08.574Z,86.55
2023-01-19T03:03:46.207Z,86.33
2023-01-19T03:06:20.065Z,86.94
2023-01-19T03:08:54.810Z,87.03
2023-01-19T03:11:26.148Z,86.64
2023-01-19T03:14:01.736Z,86.67
2023-01-19T03:16:32.444Z,87.06
2023-01-19T03:19:06.506Z,87.54
2023-01-19T03:21:37.236Z,87.64
2023-01-19T03:24:07.694Z,87.83
2023-01-19T03:26:39.036Z,88.23
2023-01-19T03:29:11.650Z,88.30
2023-01-19T03:31:41.558Z,88.22
2023-01-19T03:34:12.865Z,88.48
2023-01-19T03:36:44.765Z,88.15
2023-01-19T03:39:17.136Z,88.37
2023-01-19T03:41:48.520Z,87.96
2023-01-19T03:44:18.590Z,88.12
2023-01-19T03:46:47.981Z,88.06
2023-01-19T03:49:16.581Z,87.47
2023-01-19T03:51:45.232Z,88.22
2023-01-19T03:54:13.962Z,88.50
2023-01-19T03:56:43.753Z,87.32
2023-01-19T03:59:12.387Z,88.25
2023-01-19T04:01:42.657Z,88.21
2023-01-19T04:04:11.234Z,88.35
2023-01-19T04:06:39.939Z,88.55
2023-01-19T04:09:08.610Z,87.84
2023-01-19T04:11:37.246Z,88.22
2023-01-19T04:14:05.989Z,88.92
2023-01-19T04:16:34.596Z,88.61
2023-01-19T04:19:04.611Z,88.39
2023-01-19T04:21:33.255Z,88.28
2023-01-19T04:24:01.827Z,88.22
2023-01-19T04:26:30.437Z,88.44
2023-01-19T04:28:59.177Z,87.77
2023-01-19T04:31:27.880Z,88.71
2023-01-19T04:33:57.164Z,88.23
2023-01-19T04:36:27.604Z,88.72
2023-01-19T04:38:56.268Z,88.95
2023-01-19T04:41:24.901Z,89.42
2023-01-19T04:43:53.532Z,88.88
2023-01-19T04:46:22.216Z,88.89
2023-01-19T04:48:50.884Z,89.52
2023-01-19T04:51:19.521Z,88.98
2023-01-19T04:53:49.507Z,88.51
2023-01-19T04:56:18.101Z,89.53
2023-01-19T04:58:46.779Z,89.83
2023-01-19T05:01:15.415Z,89.65
2023-01-19T05:03:44.005Z,88.80
2023-01-19T05:06:12.705Z,88.07
2023-01-19T05:08:41.705Z,87.81
2023-01-19T05:11:12.163Z,88.28
2023-01-19T05:13:40.741Z,88.77
2023-01-19T05:16:09.632Z,88.94
2023-01-19T05:18:38.349Z,88.20
2023-01-19T05:21:07.363Z,88.41
2023-01-19T05:23:36.047Z,88.16
2023-01-19T05:26:04.913Z,88.38
2023-01-19T05:28:35.477Z,87.16
2023-01-19T05:31:04.220Z,86.96
2023-01-19T05:33:32.969Z,86.68
2023-01-19T05:36:01.606Z,87.67
2023-01-19T05:38:35.354Z,87.98
2023-01-19T05:41:04.436Z,87.60
2023-01-19T05:43:33.085Z,87.33
2023-01-19T05:46:04.869Z,86.92
2023-01-19T05:48:33.727Z,87.26
2023-01-19T05:51:02.663Z,87.67
2023-01-19T05:53:31.332Z,87.78
2023-01-19T05:56:03.880Z,88.15
2023-01-19T05:58:34.366Z,87.88
2023-01-19T06:01:05.681Z,87.18
2023-01-19T06:03:35.334Z,86.92
2023-01-19T06:06:04.936Z,87.31
2023-01-19T06:08:33.701Z,87.12
2023-01-19T06:11:02.383Z,87.09
2023-01-19T06:13:30.946Z,87.62
2023-01-19T06:16:00.256Z,88.01
2023-01-19T06:18:30.637Z,86.97
2023-01-19T06:20:59.566Z,85.43
2023-01-19T06:23:30.215Z,83.64
2023-01-19T06:25:59.071Z,85.09
2023-01-19T06:28:27.918Z,86.06
2023-01-19T06:30:57.517Z,86.28
2023-01-19T06:33:27.927Z,85.01
2023-01-19T06:35:58.014Z,86.33
2023-01-19T06:38:26.790Z,85.72
2023-01-19T06:40:58.458Z,86.02
2023-01-19T06:43:27.627Z,86.38
2023-01-19T06:45:57.222Z,86.17
2023-01-19T06:48:25.894Z,85.73
2023-01-19T06:50:54.904Z,86.05
2023-01-19T06:53:27.719Z,85.73
2023-01-19T06:55:59.715Z,85.96
2023-01-19T06:58:29.201Z,85.66
2023-01-19T07:01:02.172Z,86.51
2023-01-19T07:03:31.434Z,86.12
2023-01-19T07:06:02.270Z,84.38
2023-01-19T07:08:32.256Z,85.24
2023-01-19T07:11:25.848Z,81.94
2023-01-19T07:13:51.704Z,84.60
2023-01-19T07:16:20.566Z,84.66
2023-01-19T07:18:49.750Z,85.26
2023-01-19T07:21:19.083Z,85.11
2023-01-19T07:23:50.568Z,84.05
2023-01-19T07:26:21.341Z,84.20
2023-01-19T07:28:50.254Z,84.65
2023-01-19T07:31:19.586Z,84.67
2023-01-19T07:33:48.411Z,84.06
2023-01-19T07:36:17.109Z,83.54
2023-01-19T07:38:45.826Z,83.04
2023-01-19T07:41:15.843Z,79.61
2023-01-19T07:43:44.471Z,82.39
2023-01-19T07:46:13.212Z,82.45
2023-01-19T07:48:44.283Z,82.55
2023-01-19T07:51:17.824Z,81.28
2023-01-19T07:53:46.516Z,79.46
2023-01-19T07:56:16.552Z,79.11
2023-01-19T07:58:45.156Z,78.96
2023-01-19T08:01:14.604Z,79.32
2023-01-19T08:03:43.468Z,79.60
2023-01-19T08:06:20.782Z,79.67
2023-01-19T08:08:49.760Z,81.00
2023-01-19T08:11:19.725Z,81.67
2023-01-19T08:13:48.340Z,82.03
2023-01-19T08:16:17.002Z,82.04
2023-01-19T08:18:45.599Z,82.40
2023-01-19T08:21:14.275Z,82.92
2023-01-19T08:23:42.995Z,82.43
2023-01-19T08:26:27.357Z,82.57
2023-01-19T08:28:56.597Z,81.70
2023-01-19T08:31:25.445Z,80.62
2023-01-19T08:33:54.192Z,80.80
2023-01-19T08:36:24.899Z,80.23
2023-01-19T08:38:53.828Z,81.63
2023-01-19T08:41:23.779Z,80.05
2023-01-19T08:43:52.497Z,79.71
2023-01-19T08:46:21.891Z,78.94
2023-01-19T08:48:50.751Z,77.94
2023-01-19T08:51:19.832Z,78.99
2023-01-19T08:53:48.675Z,79.30
2023-01-19T08:56:20.338Z,77.55
2023-01-19T08:59:03.541Z,77.00
2023-01-19T09:01:37.709Z,76.78
2023-01-19T09:04:06.785Z,78.35
2023-01-19T09:06:35.631Z,77.68
2023-01-19T09:09:04.512Z,77.42
2023-01-19T09:11:34.900Z,77.58
2023-01-19T09:14:05.644Z,77.69
2023-01-19T09:16:34.302Z,75.48
2023-01-19T09:19:02.964Z,74.33
2023-01-19T09:21:31.618Z,74.21
2023-01-19T09:24:00.800Z,72.81
2023-01-19T09:26:30.271Z,73.26
2023-01-19T09:29:00.479Z,73.26
2023-01-19T09:31:30.666Z,74.17
2023-01-19T09:33:59.328Z,73.29
2023-01-19T09:36:27.977Z,73.87
2023-01-19T09:38:56.616Z,74.77
2023-01-19T09:41:26.320Z,74.45
2023-01-19T09:43:58.268Z,75.38
2023-01-19T09:46:34.363Z,75.51
2023-01-19T09:49:06.544Z,74.25
2023-01-19T09:51:37.941Z,75.71
2023-01-19T09:54:13.043Z,75.38
2023-01-19T09:56:41.913Z,76.26
2023-01-19T09:59:19.438Z,75.63
2023-01-19T10:02:02.698Z,75.27
2023-01-19T10:04:33.661Z,76.95
2023-01-19T10:07:15.129Z,75.69
2023-01-19T10:10:02.565Z,75.70
2023-01-19T10:12:40.580Z,75.67
2023-01-19T10:15:18.340Z,75.02
2023-01-19T10:17:56.579Z,74.66
2023-01-19T10:20:29.620Z,74.42
2023-01-19T10:22:59.750Z,72.34
2023-01-19T10:25:28.877Z,70.70
2023-01-19T10:27:58.997Z,70.55
2023-01-19T10:30:30.420Z,71.06
2023-01-19T10:33:00.811Z,73.02
2023-01-19T10:35:30.567Z,72.64
2023-01-19T10:38:01.961Z,70.89
2023-01-19T10:40:34.570Z,71.82
2023-01-19T10:43:03.808Z,72.25
2023-01-19T10:45:32.959Z,71.64
2023-01-19T10:48:08.680Z,70.39
2023-01-19T10:50:39.794Z,69.71
2023-01-19T10:53:21.839Z,71.45
2023-01-19T10:56:11.776Z,70.32
2023-01-19T10:58:41.350Z,69.64
2023-01-19T11:01:16.429Z,68.14
2023-01-19T11:03:46.870Z,69.42
2023-01-19T11:06:25.081Z,68.99
2023-01-19T11:08:55.058Z,67.04
2023-01-19T11:11:24.806Z,68.17
2023-01-19T11:14:09.991Z,67.27
2023-01-19T11:16:39.915Z,66.33
2023-01-19T11:19:19.958Z,66.22
2023-01-19T11:21:48.712Z,68.02
2023-01-19T11:24:17.789Z,67.36
2023-01-19T11:26:48.901Z,67.79
2023-01-19T11:29:20.184Z,67.16
2023-01-19T11:31:49.510Z,67.91
2023-01-19T11:34:29.442Z,68.99
2023-01-19T11:36:59.939Z,68.86
2023-01-19T11:39:30.623Z,69.59
2023-01-19T11:42:01.038Z,70.11
2023-01-19T11:44:32.485Z,66.99
2023-01-19T11:47:04.455Z,67.93
2023-01-19T11:49:46.645Z,69.58
2023-01-19T11:52:23.033Z,68.20
2023-01-19T11:54:56.667Z,66.89
2023-01-19T11:57:25.723Z,68.26
2023-01-19T11:59:55.167Z,68.17
2023-01-19T12:02:27.511Z,68.54
2023-01-19T12:05:00.112Z,69.17
2023-01-19T12:07:31.289Z,68.11
2023-01-19T12:10:07.843Z,68.15
2023-01-19T12:12:39.935Z,69.06
2023-01-19T12:15:12.808Z,69.31
2023-01-19T12:17:46.752Z,69.85
2023-01-19T12:20:26.650Z,69.34
2023-01-19T12:23:02.215Z,68.25
2023-01-19T12:25:37.125Z,68.09
2023-01-19T12:28:07.748Z,68.56
2023-01-19T12:30:37.485Z,68.60
2023-01-19T12:33:23.382Z,69.37
2023-01-19T12:35:58.293Z,68.02
2023-01-19T12:38:37.482Z,68.88
2023-01-19T12:41:24.346Z,69.56
2023-01-19T12:44:21.288Z,69.33
2023-01-19T12:46:51.473Z,69.93
2023-01-19T12:49:26.212Z,69.19
2023-01-19T12:52:12.447Z,69.90
2023-01-19T12:54:43.921Z,70.73
2023-01-19T12:57:20.480Z,69.16
2023-01-19T12:59:56.984Z,68.71
2023-01-19T13:02:43.046Z,67.49
2023-01-19T13:05:18.218Z,67.36
2023-01-19T13:08:16.858Z,68.33
2023-01-19T13:11:13.002Z,69.37
2023-01-19T13:13:43.760Z,69.99
2023-01-19T13:16:49.381Z,69.00
2023-01-19T13:19:19.607Z,68.57
2023-01-19T13:21:49.498Z,69.21
2023-01-19T13:24:22.368Z,67.96
2023-01-19T13:26:57.480Z,69.16
2023-01-19T13:29:29.960Z,70.87
2023-01-19T13:32:02.690Z,70.66
2023-01-19T13:34:33.296Z,70.65
2023-01-19T13:37:02.185Z,72.62
2023-01-19T13:39:38.116Z,72.05
2023-01-19T13:42:09.170Z,71.84
2023-01-19T13:44:43.566Z,72.79
2023-01-19T13:47:17.539Z,72.46
2023-01-19T13:49:48.545Z,71.90
2023-01-19T13:52:21.174Z,71.65
2023-01-19T13:54:53.225Z,71.71
2023-01-19T13:57:24.135Z,70.63
2023-01-19T14:00:07.276Z,73.15
2023-01-19T14:02:36.069Z,72.36
2023-01-19T14:05:14.668Z,72.93
2023-01-19T14:07:43.439Z,71.56
2023-01-19T14:10:16.647Z,71.46
2023-01-19T14:12:58.516Z,70.86
2023-01-19T14:15:28.114Z,72.37
2023-01-19T14:18:10.912Z,73.88
2023-01-19T14:20:39.848Z,74.54
2023-01-19T14:23:43.212Z,75.39
2023-01-19T14:26:40.017Z,75.03
2023-01-19T14:29:15.582Z,75.13
2023-01-19T14:31:45.486Z,75.73
2023-01-19T14:34:33.841Z,74.92
2023-01-19T14:37:04.074Z,76.45
2023-01-19T14:39:35.832Z,76.35
2023-01-19T14:42:06.565Z,77.08
2023-01-19T14:44:37.583Z,76.89
2023-01-19T14:47:07.584Z,77.62
2023-01-19T14:49:37.627Z,78.77
2023-01-19T14:52:08.773Z,78.45
2023-01-19T14:54:40.229Z,79.79
2023-01-19T14:57:12.250Z,79.59
2023-01-19T14:59:41.175Z,79.55
2023-01-19T15:02:10.232Z,79.29
2023-01-19T15:04:38.972Z,78.66
2023-01-19T15:07:08.319Z,78.35
2023-01-19T15:09:37.032Z,79.11
2023-01-19T15:12:08.172Z,78.64
2023-01-19T15:14:36.754Z,78.24
2023-01-19T15:17:05.451Z,78.79
2023-01-19T15:19:34.092Z,79.26
2023-01-19T15:22:02.762Z,79.11
2023-01-19T15:24:31.418Z,78.17
2023-01-19T15:27:01.929Z,78.69
2023-01-19T15:29:32.372Z,81.71
2023-01-19T15:32:02.229Z,79.90
2023-01-19T15:34:31.643Z,79.16
2023-01-19T15:37:00.475Z,80.05
2023-01-19T15:39:29.241Z,79.37
2023-01-19T15:41:57.936Z,80.40
2023-01-19T15:44:26.667Z,80.56
2023-01-19T15:46:57.354Z,80.72
2023-01-19T15:49:26.202Z,81.17
2023-01-19T15:51:54.877Z,80.47
2023-01-19T15:54:23.532Z,80.67
2023-01-19T15:56:52.786Z,80.43
2023-01-19T15:59:21.460Z,80.45
2023-01-19T16:01:50.763Z,79.02
2023-01-19T16:04:20.938Z,78.92
2023-01-19T16:06:50.000Z,78.88
2023-01-19T16:09:20.092Z,78.68
2023-01-19T16:11:48.789Z,81.05
2023-01-19T16:14:17.800Z,80.86
2023-01-19T16:16:46.927Z,80.12
2023-01-19T16:19:16.450Z,79.82
2023-01-19T16:21:46.399Z,79.77
2023-01-19T16:24:15.005Z,79.76
2023-01-19T16:26:43.653Z,81.72
2023-01-19T16:29:12.309Z,80.61
2023-01-19T16:31:42.488Z,81.22
2023-01-19T16:34:11.431Z,81.54
2023-01-19T16:36:41.457Z,83.31
2023-01-19T16:39:13.269Z,82.44
2023-01-19T16:41:42.325Z,81.52
2023-01-19T16:44:12.405Z,81.66
2023-01-19T16:46:43.877Z,82.16
2023-01-19T16:49:14.287Z,81.52
2023-01-19T16:51:43.493Z,81.38
2023-01-19T16:54:14.365Z,82.17
2023-01-19T16:56:43.301Z,81.03
2023-01-19T16:59:12.917Z,79.44
2023-01-19T17:01:43.809Z,80.91
2023-01-19T17:04:12.573Z,80.89
2023-01-19T17:06:41.274Z,81.25
2023-01-19T17:09:10.454Z,81.67
2023-01-19T17:11:41.190Z,82.15
2023-01-19T17:14:11.896Z,82.06
2023-01-19T17:16:40.718Z,82.37
2023-01-19T17:19:10.064Z,81.73
2023-01-19T17:21:38.706Z,82.74
2023-01-19T17:24:08.039Z,82.81
2023-01-19T17:26:36.685Z,82.52
2023-01-19T17:29:08.319Z,83.04
2023-01-19T17:31:37.904Z,84.21
2023-01-19T17:34:06.970Z,84.02
2023-01-19T17:36:35.604Z,84.06
2023-01-19T17:39:06.966Z,84.28
2023-01-19T17:41:36.385Z,84.32
2023-01-19T17:44:07.026Z,84.51
2023-01-19T17:46:37.287Z,85.09
2023-01-19T17:49:07.764Z,84.96
2023-01-19T17:51:36.656Z,84.01
2023-01-19T17:54:05.311Z,83.17
2023-01-19T17:56:37.489Z,82.31
2023-01-19T17:59:08.104Z,82.75
2023-01-19T18:01:39.915Z,83.34
2023-01-19T18:04:09.471Z,84.24
2023-01-19T18:06:38.817Z,83.49
2023-01-19T18:09:07.887Z,82.15
2023-01-19T18:11:36.563Z,82.64
2023-01-19T18:14:06.968Z,83.55
2023-01-19T18:16:35.813Z,84.52
2023-01-19T18:19:04.501Z,85.71
2023-01-19T18:21:33.155Z,86.90
2023-01-19T18:24:03.098Z,85.93
2023-01-19T18:26:32.234Z,85.84
2023-01-19T18:29:01.456Z,86.89
2023-01-19T18:31:31.845Z,86.52
2023-01-19T18:34:00.713Z,87.72
2023-01-19T18:36:31.854Z,87.07
2023-01-19T18:39:00.473Z,86.92
2023-01-19T18:41:29.869Z,87.17
2023-01-19T18:43:59.592Z,85.85
2023-01-19T18:46:28.342Z,84.81
2023-01-19T18:48:58.394Z,84.88
2023-01-19T18:51:27.118Z,85.77
2023-01-19T18:53:55.781Z,86.10
2023-01-19T18:56:24.706Z,85.94
2023-01-19T18:58:53.720Z,86.19
2023-01-19T19:01:25.308Z,86.28
2023-01-19T19:03:54.747Z,86.36
2023-01-19T19:06:26.873Z,86.21
2023-01-19T19:08:58.199Z,86.24
2023-01-19T19:11:28.357Z,86.38
2023-01-19T19:13:58.569Z,86.10
2023-01-19T19:16:27.264Z,86.30
2023-01-19T19:18:55.926Z,86.73
2023-01-19T19:21:26.249Z,87.01
2023-01-19T19:23:56.663Z,86.96
2023-01-19T19:26:26.025Z,86.99
2023-01-19T19:28:54.662Z,87.68
2023-01-19T19:31:26.069Z,87.56
2023-01-19T19:33:55.996Z,87.37
2023-01-19T19:36:27.093Z,87.19
2023-01-19T19:38:55.993Z,87.18
2023-01-19T19:41:26.914Z,87.72
2023-01-19T19:43:56.161Z,87.26
2023-01-19T19:46:25.107Z,87.80
2023-01-19T19:48:54.430Z,87.53
2023-01-19T19:51:25.414Z,87.44
2023-01-19T19:53:56.876Z,88.26
2023-01-19T19:56:26.632Z,87.24
2023-01-19T19:58:56.533Z,87.15
2023-01-19T20:01:28.123Z,86.67
2023-01-19T20:03:59.916Z,86.73
2023-01-19T20:06:29.589Z,85.53
2023-01-19T20:08:59.524Z,85.70
2023-01-19T20:11:28.666Z,84.95
2023-01-19T20:13:57.615Z,85.40
2023-01-19T20:16:26.426Z,85.52
2023-01-19T20:18:55.231Z,84.90
2023-01-19T20:21:25.595Z,85.33
2023-01-19T20:23:55.458Z,85.16
2023-01-19T20:26:27.525Z,84.32
2023-01-19T20:28:59.572Z,85.17
2023-01-19T20:31:30.195Z,84.60
2023-01-19T20:34:01.066Z,85.89
2023-01-19T20:36:29.790Z,84.97
2023-01-19T20:38:58.999Z,84.29
2023-01-19T20:41:28.989Z,84.31
2023-01-19T20:43:57.659Z,86.70
2023-01-19T20:46:26.319Z,86.44
2023-01-19T20:48:54.966Z,85.88
2023-01-19T20:51:25.698Z,86.91
2023-01-19T20:53:54.291Z,86.52
2023-01-19T20:56:22.998Z,86.61
2023-01-19T20:58:53.015Z,87.41
2023-01-19T21:01:23.749Z,87.51
2023-01-19T21:03:53.077Z,87.68
2023-01-19T21:06:22.567Z,86.79
2023-01-19T21:08:51.288Z,86.58
2023-01-19T21:11:21.295Z,85.98
2023-01-19T21:13:50.574Z,85.45
2023-01-19T21:16:20.658Z,86.28
2023-01-19T21:18:49.437Z,85.15
2023-01-19T21:21:29.749Z,85.07
2023-01-19T21:24:00.460Z,84.34
2023-01-19T21:26:30.684Z,84.27
2023-01-19T21:28:59.435Z,84.90
2023-01-19T21:31:29.592Z,85.28
2023-01-19T21:33:58.544Z,85.75
2023-01-19T21:36:27.370Z,86.03
2023-01-19T21:39:00.373Z,85.44
2023-01-19T21:41:30.897Z,85.86
2023-01-19T21:44:01.019Z,86.38
2023-01-19T21:46:32.990Z,86.23
2023-01-19T21:49:02.891Z,87.02
2023-01-19T21:51:34.607Z,86.72
2023-01-19T21:54:03.952Z,86.69
2023-01-19T21:56:32.963Z,87.84
2023-01-19T21:59:03.366Z,87.57
2023-01-19T22:01:34.228Z,86.39
2023-01-19T22:04:03.048Z,87.12
2023-01-19T22:06:31.722Z,87.52
2023-01-19T22:09:00.771Z,88.23
2023-01-19T22:11:30.000Z,88.21
2023-01-19T22:13:59.684Z,87.41
2023-01-19T22:16:29.191Z,87.35
2023-01-19T22:19:01.144Z,87.45
2023-01-19T22:21:33.060Z,88.49
2023-01-19T22:24:02.905Z,88.11
2023-01-19T22:26:33.993Z,88.01
2023-01-19T22:29:03.468Z,88.62
2023-01-19T22:31:32.439Z,88.25
2023-01-19T22:34:02.543Z,88.28
2023-01-19T22:36:33.778Z,88.40
2023-01-19T22:39:03.447Z,88.43
2023-01-19T22:41:33.278Z,88.73
2023-01-19T22:44:03.511Z,89.06
2023-01-19T22:46:33.647Z,88.47
2023-01-19T22:49:04.632Z,88.97
2023-01-19T22:51:33.505Z,88.81
2023-01-19T22:54:02.493Z,88.65
2023-01-19T22:56:32.383Z,88.95
2023-01-19T22:59:01.501Z,88.58
2023-01-19T23:01:33.287Z,89.36
2023-01-19T23:04:04.510Z,88.20
2023-01-19T23:06:34.702Z,88.60
2023-01-19T23:09:05.810Z,88.41
2023-01-19T23:11:36.228Z,89.50
2023-01-19T23:14:05.015Z,89.83
2023-01-19T23:16:33.659Z,89.41
2023-01-19T23:19:04.544Z,90.17
2023-01-19T23:21:33.478Z,89.43
2023-01-19T23:24:03.497Z,90.51
2023-01-19T23:26:37.936Z,90.42
2023-01-19T23:29:08.778Z,89.97
2023-01-19T23:31:38.772Z,88.88
2023-01-19T23:34:10.323Z,88.77
2023-01-19T23:36:40.191Z,87.81
2023-01-19T23:39:16.664Z,87.09
2023-01-19T23:41:45.421Z,87.38
2023-01-19T23:44:14.127Z,87.06
2023-01-19T23:46:43.837Z,86.97
2023-01-19T23:49:14.088Z,87.29
2023-01-19T23:51:42.859Z,87.90
2023-01-19T23:54:12.208Z,88.71
2023-01-19T23:56:42.482Z,88.30
2023-01-19T23:59:12.664Z,87.71
